Time;durP1;ratioP1;P1;durP2;ratioP2;P2;SDS_P1;SDS_P2;PMS_P1;PMS_P2;Temp;Humidity;BMP_temperature;BMP_pressure;BME280_temperature;BME280_humidity;BME280_pressure;Samples;Min_cycle;Max_cycle;Signal;HPM_P1;HPM_P2
2022/04/17 00:00:55;;;;;;;13.17;12.57;;;6.20;9.30;;;;;;5092938;28;20523;-73
2022/04/17 00:03:24;;;;;;;13.50;12.90;;;6.20;9.40;;;;;;5093841;28;20182;-71
2022/04/17 00:05:50;;;;;;;13.70;12.90;;;6.20;9.30;;;;;;5093788;28;20990;-72
2022/04/17 00:08:16;;;;;;;13.40;12.60;;;6.10;9.60;;;;;;5093602;28;20644;-72
2022/04/17 00:10:41;;;;;;;13.60;12.90;;;6.10;9.60;;;;;;5092297;28;20214;-71
2022/04/17 00:13:07;;;;;;;12.93;12.17;;;6.00;9.30;;;;;;5092291;28;20215;-73
2022/04/17 00:15:33;;;;;;;12.17;11.67;;;6.00;9.60;;;;;;5093483;28;20178;-74
2022/04/17 00:17:58;;;;;;;13.47;12.67;;;6.00;9.30;;;;;;5093309;28;20422;-71
2022/04/17 00:20:24;;;;;;;12.90;12.20;;;6.00;9.50;;;;;;5093494;28;20205;-72
2022/04/17 00:22:50;;;;;;;13.03;12.10;;;6.00;9.30;;;;;;5093508;28;20187;-72
2022/04/17 00:25:16;;;;;;;13.97;13.17;;;6.10;9.20;;;;;;5093282;28;20553;-73
2022/04/17 00:27:42;;;;;;;12.30;11.70;;;6.10;8.90;;;;;;5093112;28;20180;-72
2022/04/17 00:30:09;;;;;;;13.60;12.93;;;6.10;9.10;;;;;;5092947;28;20205;-71
2022/04/17 00:32:36;;;;;;;12.65;12.10;;;6.00;8.90;;;;;;5093155;28;20409;-70
2022/04/17 00:35:03;;;;;;;13.00;12.18;;;6.00;8.90;;;;;;5093272;28;20192;-73
2022/04/17 00:37:29;;;;;;;13.07;12.20;;;6.00;9.00;;;;;;5091581;28;20189;-71
2022/04/17 00:39:55;;;;;;;13.60;12.90;;;6.00;8.90;;;;;;5093082;28;20190;-70
2022/04/17 00:42:20;;;;;;;13.80;13.10;;;6.00;8.90;;;;;;5092544;28;20212;-70
2022/04/17 00:44:46;;;;;;;12.90;12.30;;;5.90;9.00;;;;;;5092973;28;20181;-70
2022/04/17 00:47:15;;;;;;;12.20;11.60;;;5.90;8.70;;;;;;5092755;28;20181;-73
2022/04/17 00:49:42;;;;;;;13.48;12.65;;;5.90;9.00;;;;;;5092813;28;20190;-71
2022/04/17 00:52:08;;;;;;;13.75;13.05;;;5.70;9.20;;;;;;5092832;28;20169;-72
2022/04/17 00:54:34;;;;;;;12.57;12.07;;;5.80;8.90;;;;;;5092770;28;20764;-70
2022/04/17 00:57:01;;;;;;;13.10;12.40;;;5.70;9.20;;;;;;5092713;28;20202;-73
2022/04/17 00:59:27;;;;;;;12.70;12.10;;;5.80;9.20;;;;;;5092619;28;20196;-71
2022/04/17 01:01:53;;;;;;;13.30;12.55;;;5.80;9.10;;;;;;5092837;28;20647;-71
2022/04/17 01:04:19;;;;;;;13.70;12.95;;;5.80;9.30;;;;;;5092021;28;20640;-70
2022/04/17 01:06:45;;;;;;;12.40;11.80;;;5.80;9.40;;;;;;5091192;28;20182;-70
2022/04/17 01:09:11;;;;;;;13.17;12.57;;;5.80;9.60;;;;;;5092839;28;20267;-71
2022/04/17 01:11:40;;;;;;;12.30;11.65;;;5.70;9.70;;;;;;5108699;28;20647;-70
2022/04/17 01:14:08;;;;;;;14.20;13.30;;;5.70;9.80;;;;;;5092541;28;20204;-70
2022/04/17 01:16:36;;;;;;;13.48;12.68;;;5.60;9.90;;;;;;5091077;28;20635;-70
2022/04/17 01:19:10;;;;;;;13.45;12.50;;;5.60;10.10;;;;;;5092468;28;20174;-71
2022/04/17 01:21:36;;;;;;;12.65;12.05;;;5.60;10.20;;;;;;5092509;28;20174;-70
2022/04/17 01:26:56;;;;;;;13.38;12.35;;;5.60;10.50;;;;;;5092152;28;20420;-70
2022/04/17 01:29:35;;;;;;;12.73;11.93;;;5.50;10.50;;;;;;5092601;28;20204;-73
2022/04/17 01:32:10;;;;;;;12.05;11.25;;;5.50;10.50;;;;;;5108000;28;20643;-72
2022/04/17 01:34:37;;;;;;;12.35;11.75;;;5.40;10.60;;;;;;5092211;28;20690;-73
2022/04/17 01:37:04;;;;;;;12.68;11.98;;;5.40;10.70;;;;;;5091858;28;20204;-73
2022/04/17 01:39:30;;;;;;;13.60;12.82;;;5.30;10.60;;;;;;5092638;28;20193;-73
2022/04/17 01:41:57;;;;;;;12.23;11.63;;;5.30;10.90;;;;;;5092592;28;20669;-73
2022/04/17 01:44:25;;;;;;;13.10;12.45;;;5.30;10.80;;;;;;5092417;28;20228;-72
2022/04/17 01:46:51;;;;;;;13.57;12.68;;;5.30;10.70;;;;;;5091919;28;20177;-72
2022/04/17 01:49:17;;;;;;;13.05;12.10;;;5.30;10.60;;;;;;5091907;28;20272;-73
2022/04/17 01:51:44;;;;;;;12.50;11.90;;;5.20;11.10;;;;;;5090731;28;20273;-73
2022/04/17 01:54:13;;;;;;;12.35;11.75;;;5.20;11.20;;;;;;5092819;28;20549;-72
2022/04/17 01:56:40;;;;;;;18.77;13.07;;;5.20;11.30;;;;;;5096005;28;20173;-73
2022/04/17 01:59:07;;;;;;;12.63;11.90;;;5.10;11.30;;;;;;5096154;28;20189;-73
2022/04/17 02:01:37;;;;;;;12.30;11.70;;;5.00;11.30;;;;;;5096190;28;20642;-73
2022/04/17 02:04:04;;;;;;;12.95;12.35;;;5.10;11.70;;;;;;5096030;28;20594;-73
2022/04/17 02:06:30;;;;;;;12.02;11.45;;;5.00;11.60;;;;;;5095706;28;20303;-72
2022/04/17 02:08:56;;;;;;;12.52;11.82;;;5.00;11.60;;;;;;5095980;28;20169;-72
2022/04/17 02:11:24;;;;;;;12.63;11.93;;;4.90;11.50;;;;;;5095916;28;20181;-73
2022/04/17 02:13:50;;;;;;;13.13;12.38;;;4.80;11.50;;;;;;5095770;28;20196;-72
2022/04/17 02:16:17;;;;;;;13.33;12.47;;;4.80;11.50;;;;;;5095962;28;20173;-73
2022/04/17 02:18:44;;;;;;;12.90;11.98;;;4.80;11.50;;;;;;5095522;28;20434;-73
2022/04/17 02:21:10;;;;;;;14.02;13.13;;;4.80;11.50;;;;;;5095804;28;20165;-73
2022/04/17 02:23:35;;;;;;;13.15;12.35;;;4.80;11.50;;;;;;5095757;28;20177;-73
2022/04/17 02:26:01;;;;;;;14.23;13.53;;;4.80;11.70;;;;;;5094368;28;20227;-73
2022/04/17 02:28:29;;;;;;;13.33;12.53;;;4.80;11.50;;;;;;5096650;28;20181;-73
2022/04/17 02:30:54;;;;;;;13.50;12.70;;;4.90;11.50;;;;;;5095664;28;20235;-73
2022/04/17 02:33:20;;;;;;;13.13;12.37;;;4.90;11.50;;;;;;5094367;28;20610;-74
2022/04/17 02:35:46;;;;;;;13.90;12.90;;;4.70;11.50;;;;;;5095588;28;20204;-73
2022/04/17 02:38:14;;;;;;;12.63;11.93;;;4.70;11.70;;;;;;5095321;28;20200;-73
2022/04/17 02:40:40;;;;;;;12.52;11.82;;;4.70;11.50;;;;;;5094149;28;20442;-73
2022/04/17 02:43:05;;;;;;;13.50;12.20;;;4.70;11.40;;;;;;5095505;28;20177;-73
2022/04/17 02:45:31;;;;;;;12.87;12.27;;;4.70;11.40;;;;;;5095329;28;20181;-73
2022/04/17 02:47:57;;;;;;;12.67;12.07;;;4.70;11.40;;;;;;5093720;28;20656;-73
2022/04/17 02:50:23;;;;;;;13.43;12.77;;;4.80;11.50;;;;;;5095213;28;20202;-73
2022/04/17 02:52:49;;;;;;;13.27;12.57;;;4.80;11.50;;;;;;5094026;28;20205;-73
2022/04/17 02:55:15;;;;;;;12.52;11.93;;;4.80;11.50;;;;;;5095401;28;20230;-73
2022/04/17 02:57:40;;;;;;;12.97;12.37;;;4.80;11.50;;;;;;5093563;28;20173;-73
2022/04/17 03:00:08;;;;;;;12.33;11.63;;;4.80;11.50;;;;;;5095383;28;20204;-73
2022/04/17 03:05:36;;;;;;;12.20;11.60;;;4.70;11.40;;;;;;5094627;28;20180;-73
2022/04/17 03:08:07;;;;;;;11.98;11.38;;;4.70;11.40;;;;;;5094839;28;20252;-72
2022/04/17 03:10:33;;;;;;;12.00;11.40;;;4.70;11.40;;;;;;5110635;28;20380;-73
2022/04/17 03:12:59;;;;;;;12.57;11.98;;;4.70;11.40;;;;;;5110608;28;20201;-73
2022/04/17 03:15:25;;;;;;;13.33;12.63;;;4.60;11.40;;;;;;5094837;28;20166;-73
2022/04/17 03:17:51;;;;;;;13.23;12.25;;;4.60;11.70;;;;;;5094509;28;20644;-73
2022/04/17 03:20:17;;;;;;;13.10;12.40;;;4.50;11.80;;;;;;5094709;28;20213;-72
2022/04/17 03:22:43;;;;;;;12.30;11.50;;;4.50;12.30;;;;;;5093471;28;20177;-73
2022/04/17 03:25:09;;;;;;;12.75;12.07;;;4.40;11.90;;;;;;5095083;28;20169;-73
2022/04/17 03:27:35;;;;;;;12.60;12.00;;;4.30;12.00;;;;;;5098652;28;20166;-73
2022/04/17 03:30:01;;;;;;;11.50;10.90;;;4.20;12.50;;;;;;5098938;28;20220;-73
2022/04/17 03:32:27;;;;;;;12.23;11.43;;;4.20;12.50;;;;;;5094391;28;20178;-73
2022/04/17 03:34:52;;;;;;;12.23;11.60;;;4.20;12.10;;;;;;5092927;28;20689;-73
2022/04/17 03:37:18;;;;;;;11.20;10.70;;;4.30;11.50;;;;;;5094038;28;20223;-72
2022/04/17 03:39:48;;;;;;;13.00;12.30;;;4.40;11.30;;;;;;5094182;28;20185;-73
2022/04/17 03:42:15;;;;;;;11.38;10.77;;;4.50;11.30;;;;;;5093017;28;20176;-73
2022/04/17 03:44:41;;;;;;;11.88;11.27;;;4.50;11.30;;;;;;5094126;28;20226;-73
2022/04/17 03:47:06;;;;;;;11.67;10.97;;;4.50;11.30;;;;;;5094305;28;20183;-72
2022/04/17 03:49:32;;;;;;;11.73;11.03;;;4.50;11.30;;;;;;5094055;28;20225;-72
2022/04/17 03:51:59;;;;;;;10.88;10.38;;;4.60;11.30;;;;;;5094198;28;20185;-72
2022/04/17 03:54:24;;;;;;;12.18;11.57;;;4.60;11.40;;;;;;5093946;28;20239;-71
2022/04/17 03:56:50;;;;;;;12.23;11.53;;;4.70;11.10;;;;;;5092704;28;20173;-73
2022/04/17 03:59:15;;;;;;;12.03;11.33;;;4.70;11.10;;;;;;5094064;28;20662;-72
2022/04/17 04:01:41;;;;;;;13.40;12.40;;;4.80;10.40;;;;;;5093931;28;20285;-72
2022/04/17 04:04:07;;;;;;;11.50;10.90;;;4.80;10.60;;;;;;5093776;28;20185;-71
2022/04/17 04:06:33;;;;;;;12.20;11.50;;;4.70;10.90;;;;;;5093583;28;20179;-72
2022/04/17 04:08:58;;;;;;;11.57;10.88;;;4.70;10.80;;;;;;5093416;28;20166;-72
2022/04/17 04:11:24;;;;;;;12.10;11.47;;;4.70;10.50;;;;;;5092344;28;20493;-71
2022/04/17 04:13:49;;;;;;;11.40;10.53;;;4.80;10.70;;;;;;5093610;28;20197;-71
2022/04/17 04:16:15;;;;;;;11.43;10.93;;;4.70;10.60;;;;;;5092095;28;20173;-71
2022/04/17 04:18:41;;;;;;;10.80;10.30;;;4.80;11.10;;;;;;5092567;28;20169;-72
2022/04/17 04:21:06;;;;;;;12.53;11.83;;;4.60;11.50;;;;;;5093396;28;20196;-72
2022/04/17 04:23:33;;;;;;;12.00;11.30;;;4.40;12.70;;;;;;5091971;28;20639;-71
2022/04/17 04:25:59;;;;;;;11.45;10.85;;;4.30;13.00;;;;;;5093305;28;20165;-72
2022/04/17 04:28:36;;;;;;;10.90;10.40;;;4.10;13.70;;;;;;5092923;28;20546;-72
2022/04/17 04:31:09;;;;;;;12.07;11.48;;;3.80;14.90;;;;;;5092959;28;20213;-71
2022/04/17 04:33:36;;;;;;;11.00;10.00;;;3.80;14.90;;;;;;5093248;28;20181;-72
2022/04/17 04:36:04;;;;;;;11.20;10.50;;;3.50;15.40;;;;;;5091942;28;20204;-72
2022/04/17 04:38:30;;;;;;;10.43;9.77;;;3.50;15.80;;;;;;5109123;28;20188;-72
2022/04/17 04:40:56;;;;;;;11.07;10.48;;;3.40;16.10;;;;;;5093346;28;20209;-72
2022/04/17 04:43:22;;;;;;;10.67;9.97;;;3.40;16.30;;;;;;5092898;28;20257;-72
2022/04/17 04:51:17;;;;;;;10.93;10.23;;;3.30;16.70;;;;;;5093120;28;20180;-72
2022/04/17 04:53:43;;;;;;;11.50;10.60;;;3.20;17.00;;;;;;5091632;28;20548;-72
2022/04/17 04:56:09;;;;;;;11.87;11.17;;;3.20;17.00;;;;;;5092753;28;20177;-72
2022/04/17 04:58:35;;;;;;;11.73;10.77;;;3.30;16.70;;;;;;5091161;28;20427;-73
2022/04/17 05:01:00;;;;;;;10.50;9.90;;;3.30;16.80;;;;;;5091509;28;20427;-72
2022/04/17 05:03:26;;;;;;;11.23;10.63;;;3.10;17.30;;;;;;5092621;28;20213;-71
2022/04/17 05:05:52;;;;;;;9.67;9.07;;;2.90;17.90;;;;;;5092710;28;20172;-72
2022/04/17 05:08:19;;;;;;;10.15;9.35;;;2.90;18.20;;;;;;5092460;28;20208;-72
2022/04/17 05:10:46;;;;;;;10.05;9.55;;;3.00;17.80;;;;;;5092747;28;20189;-72
2022/04/17 05:13:11;;;;;;;10.52;9.82;;;3.10;17.70;;;;;;5092990;28;20174;-73
2022/04/17 05:15:37;;;;;;;9.87;9.37;;;3.30;17.30;;;;;;5091074;28;20179;-72
2022/04/17 05:18:03;;;;;;;10.07;9.57;;;3.30;17.10;;;;;;5092252;28;20173;-72
2022/04/17 05:20:32;;;;;;;10.90;10.00;;;3.40;17.00;;;;;;5092278;28;20435;-72
2022/04/17 05:23:03;;;;;;;10.00;9.40;;;3.50;17.10;;;;;;5092320;28;20193;-71
2022/04/17 05:25:30;;;;;;;10.65;9.57;;;3.60;17.10;;;;;;5092211;28;20579;-71
2022/04/17 05:27:55;;;;;;;10.95;10.27;;;4.00;17.90;;;;;;5092614;28;20176;-71
2022/04/17 05:30:21;;;;;;;12.90;12.10;;;4.80;16.10;;;;;;5090770;28;20288;-71
2022/04/17 05:32:46;;;;;;;13.63;12.23;;;5.50;14.00;;;;;;5091649;28;20171;-72
2022/04/17 05:35:12;;;;;;;12.77;12.10;;;6.10;12.30;;;;;;5091565;28;20178;-72
2022/04/17 05:37:37;;;;;;;13.50;12.73;;;7.00;11.00;;;;;;5091731;28;20184;-72
2022/04/17 05:40:04;;;;;;;13.07;12.37;;;8.00;10.50;;;;;;5092003;28;20267;-71
2022/04/17 05:42:29;;;;;;;14.17;13.20;;;8.80;7.90;;;;;;5092103;28;20232;-73
2022/04/17 05:44:55;;;;;;;13.57;12.93;;;9.50;9.50;;;;;;5084191;28;20522;-71
2022/04/17 05:47:21;;;;;;;14.03;13.30;;;11.00;7.00;;;;;;5080785;28;20186;-73
2022/04/17 05:49:46;;;;;;;14.70;13.90;;;12.40;6.00;;;;;;5094235;28;20203;-72
2022/04/17 05:52:12;;;;;;;14.73;13.53;;;13.40;3.00;;;;;;5073053;28;20184;-73
2022/04/17 05:54:43;;;;;;;14.83;14.13;;;14.30;3.10;;;;;;5084720;28;20185;-72
2022/04/17 05:57:09;;;;;;;14.50;13.80;;;14.90;1.00;;;;;;5092329;28;20418;-73
2022/04/17 05:59:36;;;;;;;13.93;13.33;;;14.80;1.00;;;;;;5091784;28;20494;-72
2022/04/17 06:02:02;;;;;;;14.43;13.83;;;15.00;1.00;;;;;;5091563;28;20418;-72
2022/04/17 06:04:28;;;;;;;15.37;14.70;;;15.20;1.00;;;;;;5071669;28;20460;-71
2022/04/17 06:06:54;;;;;;;16.00;15.20;;;14.40;1.00;;;;;;5071341;28;20414;-71
2022/04/17 06:09:19;;;;;;;14.77;14.07;;;13.50;1.00;;;;;;5071491;28;20200;-71
2022/04/17 06:11:45;;;;;;;14.43;13.73;;;10.90;1.00;;;;;;5070278;28;20180;-71
2022/04/17 06:14:10;;;;;;;16.30;15.50;;;10.30;3.90;;;;;;5075292;28;20188;-72
2022/04/17 06:16:36;;;;;;;15.70;14.90;;;9.50;5.10;;;;;;5094223;28;20176;-72
2022/04/17 06:19:01;;;;;;;14.47;13.67;;;8.70;5.60;;;;;;5093065;28;20178;-72
2022/04/17 06:21:28;;;;;;;15.03;14.20;;;8.70;6.80;;;;;;5092006;28;20207;-72
2022/04/17 06:23:54;;;;;;;14.50;13.80;;;9.00;6.00;;;;;;5092519;28;20205;-73
2022/04/17 06:26:20;;;;;;;14.27;13.53;;;8.40;7.50;;;;;;5075070;28;20439;-73
2022/04/17 06:28:45;;;;;;;14.23;13.57;;;8.90;6.80;;;;;;5083260;28;20182;-74
2022/04/17 06:31:11;;;;;;;14.60;13.90;;;9.10;6.10;;;;;;5091128;28;20440;-73
2022/04/17 06:33:36;;;;;;;14.03;13.40;;;10.00;5.20;;;;;;5091821;28;20180;-73
2022/04/17 06:36:02;;;;;;;14.50;13.90;;;10.80;4.30;;;;;;5092593;28;20184;-75
2022/04/17 06:38:28;;;;;;;13.70;12.70;;;10.90;2.70;;;;;;5090945;28;20185;-72
2022/04/17 06:40:57;;;;;;;15.10;14.30;;;10.70;4.10;;;;;;5092839;28;20446;-72
2022/04/17 06:43:23;;;;;;;13.67;13.13;;;11.50;2.50;;;;;;5089982;28;20468;-70
2022/04/17 06:45:48;;;;;;;14.30;13.60;;;11.80;2.20;;;;;;5076781;28;20922;-70
2022/04/17 06:48:18;;;;;;;13.87;13.27;;;12.60;1.60;;;;;;5076442;28;20459;-69
2022/04/17 06:50:46;;;;;;;15.30;14.60;;;13.20;2.10;;;;;;5077672;28;20275;-70
2022/04/17 06:53:12;;;;;;;14.23;13.63;;;14.80;1.00;;;;;;5075317;28;20426;-70
2022/04/17 06:55:38;;;;;;;14.30;13.70;;;14.60;1.00;;;;;;5075611;28;20905;-70
2022/04/17 06:58:05;;;;;;;14.93;14.33;;;15.60;1.00;;;;;;5093074;28;20409;-71
2022/04/17 07:00:31;;;;;;;14.73;14.13;;;16.20;1.00;;;;;;5092000;28;20431;-71
2022/04/17 07:02:57;;;;;;;14.47;13.87;;;17.20;1.00;;;;;;5091129;28;20430;-71
2022/04/17 07:05:22;;;;;;;13.83;13.23;;;17.70;1.00;;;;;;5090887;28;20318;-71
2022/04/17 07:07:59;;;;;;;14.93;14.20;;;18.00;1.00;;;;;;5090172;28;20643;-71
2022/04/17 07:10:26;;;;;;;14.70;13.80;;;18.80;1.00;;;;;;5082510;28;20287;-71
2022/04/17 07:12:52;;;;;;;14.60;14.00;;;19.30;1.00;;;;;;5089803;28;20940;-71
2022/04/17 07:15:19;;;;;;;14.40;13.80;;;19.70;1.00;;;;;;5090346;28;20418;-71
2022/04/17 07:17:46;;;;;;;14.77;14.00;;;20.10;1.00;;;;;;5090487;28;20181;-71
2022/04/17 07:20:12;;;;;;;14.23;13.70;;;20.50;1.00;;;;;;5082436;28;21149;-72
2022/04/17 07:22:41;;;;;;;14.87;14.27;;;20.60;1.00;;;;;;5070748;28;20952;-72
2022/04/17 07:25:08;;;;;;;14.20;13.70;;;20.20;1.00;;;;;;5087933;28;20467;-71
2022/04/17 07:27:44;;;;;;;13.80;13.30;;;20.00;1.00;;;;;;5088419;28;20498;-71
2022/04/17 07:30:15;;;;;;;14.13;13.63;;;19.70;1.00;;;;;;5090486;28;20466;-72
2022/04/17 07:32:47;;;;;;;14.40;13.80;;;19.40;1.00;;;;;;5089390;28;20427;-70
2022/04/17 07:35:14;;;;;;;14.50;13.83;;;18.90;1.00;;;;;;5090657;28;20483;-71
2022/04/17 07:37:39;;;;;;;15.13;14.43;;;18.80;1.00;;;;;;5089537;28;21011;-70
2022/04/17 07:40:14;;;;;;;14.80;14.10;;;18.80;1.00;;;;;;5089723;28;20466;-71
2022/04/17 07:42:41;;;;;;;15.27;14.57;;;18.70;1.00;;;;;;5089248;28;20184;-72
2022/04/17 07:45:07;;;;;;;14.70;14.00;;;18.60;1.00;;;;;;5089463;28;20424;-70
2022/04/17 07:47:33;;;;;;;14.77;14.17;;;18.20;1.00;;;;;;5089487;28;20457;-71
2022/04/17 07:49:59;;;;;;;14.70;14.00;;;16.90;1.00;;;;;;5089982;28;20516;-70
2022/04/17 07:52:25;;;;;;;14.03;13.53;;;16.80;1.00;;;;;;5087802;28;20438;-69
2022/04/17 07:54:50;;;;;;;14.10;13.50;;;17.20;1.00;;;;;;5088168;28;20438;-69
2022/04/17 07:57:16;;;;;;;14.07;13.47;;;17.00;1.00;;;;;;5081307;28;20196;-71
2022/04/17 07:59:41;;;;;;;14.00;13.30;;;16.80;1.00;;;;;;5088280;28;20314;-67
2022/04/17 08:02:21;;;;;;;14.13;13.43;;;17.30;1.00;;;;;;5089618;28;20192;-70
2022/04/17 08:04:51;;;;;;;13.80;13.30;;;17.80;1.00;;;;;;5087976;28;20232;-70
2022/04/17 08:07:16;;;;;;;14.90;14.30;;;17.90;1.00;;;;;;5089081;28;20450;-73
2022/04/17 08:09:42;;;;;;;14.13;13.43;;;17.90;1.00;;;;;;5090117;28;20467;-71
2022/04/17 08:12:07;;;;;;;14.53;13.93;;;17.90;1.00;;;;;;5089083;28;20272;-70
2022/04/17 08:14:33;;;;;;;14.53;13.93;;;17.70;1.00;;;;;;5089358;28;20673;-73
2022/04/17 08:16:58;;;;;;;15.00;14.20;;;17.30;1.00;;;;;;5089407;28;20864;-70
2022/04/17 08:19:24;;;;;;;14.80;14.10;;;17.20;1.00;;;;;;5087741;28;20205;-71
2022/04/17 08:21:51;;;;;;;14.63;14.03;;;16.90;1.00;;;;;;5088751;28;20189;-74
2022/04/17 08:24:18;;;;;;;13.90;13.30;;;16.60;1.00;;;;;;5089127;28;20714;-68
2022/04/17 08:26:43;;;;;;;13.87;13.10;;;16.50;1.00;;;;;;5088856;28;20786;-70
2022/04/17 08:29:10;;;;;;;15.23;14.43;;;16.50;1.00;;;;;;5089533;28;20541;-70
2022/04/17 08:31:35;;;;;;;13.87;13.30;;;16.50;1.00;;;;;;5089527;28;20173;-70
2022/04/17 08:34:02;;;;;;;14.93;14.00;;;16.30;1.00;;;;;;5091252;28;20928;-70
2022/04/17 08:36:27;;;;;;;14.13;13.63;;;15.50;1.00;;;;;;5094759;28;20184;-71
2022/04/17 08:38:53;;;;;;;15.40;14.40;;;15.40;1.00;;;;;;5093527;28;20439;-71
2022/04/17 08:41:20;;;;;;;14.60;14.00;;;14.90;1.00;;;;;;5094169;28;20548;-71
2022/04/17 08:43:46;;;;;;;14.43;13.83;;;14.20;1.00;;;;;;5093937;28;20290;-71
2022/04/17 08:46:12;;;;;;;13.37;12.80;;;13.90;1.00;;;;;;5093545;28;20452;-71
2022/04/17 08:48:38;;;;;;;14.00;13.50;;;13.50;1.00;;;;;;5092144;28;20956;-70
2022/04/17 08:51:07;;;;;;;13.50;12.90;;;13.30;1.00;;;;;;5092928;28;20197;-70
2022/04/17 08:53:36;;;;;;;14.53;13.33;;;12.90;1.00;;;;;;5093059;28;20411;-70
2022/04/17 08:56:03;;;;;;;13.60;13.00;;;12.70;1.00;;;;;;5087616;28;20836;-69
2022/04/17 08:58:29;;;;;;;14.63;13.73;;;12.50;1.00;;;;;;5072416;28;20424;-71
2022/04/17 09:00:55;;;;;;;13.43;12.83;;;11.80;1.00;;;;;;5076434;28;20453;-70
2022/04/17 09:03:20;;;;;;;13.70;13.20;;;11.70;1.00;;;;;;5090200;28;20462;-71
2022/04/17 09:05:47;;;;;;;13.40;12.90;;;11.60;1.00;;;;;;5088856;28;20175;-72
2022/04/17 09:08:17;;;;;;;14.10;13.50;;;11.60;1.00;;;;;;5088577;28;20283;-74
2022/04/17 09:10:57;;;;;;;14.10;13.50;;;11.30;1.00;;;;;;5087858;28;20435;-72
2022/04/17 09:13:31;;;;;;;12.50;12.00;;;11.30;1.00;;;;;;5087668;28;20544;-74
2022/04/17 09:15:58;;;;;;;13.53;12.93;;;11.30;1.00;;;;;;5089314;28;20895;-72
2022/04/17 09:18:27;;;;;;;13.10;12.50;;;11.30;1.00;;;;;;5086983;28;20627;-72
2022/04/17 09:20:52;;;;;;;12.93;12.33;;;11.50;1.00;;;;;;5086931;28;20539;-70
2022/04/17 09:23:36;;;;;;;13.10;12.57;;;11.60;1.00;;;;;;5087859;28;20551;-74
2022/04/17 09:26:03;;;;;;;12.67;11.97;;;11.70;1.00;;;;;;5089658;28;20183;-71
2022/04/17 09:28:36;;;;;;;13.23;12.73;;;11.80;1.00;;;;;;5089611;28;20410;-71
2022/04/17 09:31:09;;;;;;;13.10;12.60;;;11.90;1.00;;;;;;5090223;28;20485;-72
2022/04/17 09:33:37;;;;;;;13.07;12.40;;;12.00;1.00;;;;;;5090307;28;20494;-72
2022/04/17 09:36:03;;;;;;;12.23;11.70;;;12.20;1.00;;;;;;5089551;28;20426;-71
2022/04/17 09:38:33;;;;;;;12.90;12.23;;;12.20;1.00;;;;;;5088243;28;20431;-73
2022/04/17 09:41:11;;;;;;;13.17;12.57;;;12.30;1.00;;;;;;5092593;28;20739;-72
2022/04/17 09:43:37;;;;;;;13.10;12.50;;;12.40;1.00;;;;;;5095539;28;20463;-71
2022/04/17 09:46:07;;;;;;;13.10;12.60;;;12.60;1.00;;;;;;5088198;28;20431;-72
2022/04/17 09:48:38;;;;;;;12.80;12.30;;;12.70;1.00;;;;;;5087115;28;20238;-72
2022/04/17 09:51:25;;;;;;;12.40;11.90;;;12.70;1.00;;;;;;5086539;28;20439;-71
2022/04/17 09:53:58;;;;;;;12.43;11.93;;;12.60;1.00;;;;;;5086428;28;20442;-72
2022/04/17 09:56:40;;;;;;;12.03;11.50;;;12.70;1.00;;;;;;5087332;28;20525;-71
2022/04/17 09:59:21;;;;;;;12.50;12.00;;;12.60;1.00;;;;;;5086084;28;20460;-72
2022/04/17 10:01:49;;;;;;;12.47;12.00;;;12.80;1.00;;;;;;5088308;28;20461;-72
2022/04/17 10:04:19;;;;;;;12.00;11.50;;;13.00;1.00;;;;;;5086112;28;20554;-72
2022/04/17 10:06:50;;;;;;;12.63;12.13;;;13.00;1.00;;;;;;5087842;28;20426;-72
2022/04/17 10:09:16;;;;;;;12.43;11.93;;;12.90;1.00;;;;;;5087642;28;20459;-72
2022/04/17 10:11:42;;;;;;;11.67;11.17;;;13.10;1.00;;;;;;5087686;28;20499;-71
2022/04/17 10:14:08;;;;;;;12.70;12.20;;;13.10;1.00;;;;;;5086820;28;20428;-71
2022/04/17 10:16:34;;;;;;;12.57;11.97;;;13.30;1.00;;;;;;5091417;28;20188;-72
2022/04/17 10:19:05;;;;;;;13.00;12.40;;;13.30;1.00;;;;;;5091841;28;20457;-72
2022/04/17 10:21:35;;;;;;;12.37;11.97;;;13.40;1.00;;;;;;5091930;28;20855;-72
2022/04/17 10:24:04;;;;;;;12.17;11.67;;;13.60;1.00;;;;;;5091471;28;20456;-72
2022/04/17 10:26:32;;;;;;;12.37;11.87;;;13.60;1.00;;;;;;5091999;28;20423;-72
2022/04/17 10:29:02;;;;;;;12.17;11.67;;;13.60;1.00;;;;;;5092079;28;20434;-73
2022/04/17 10:32:00;;;;;;;13.40;12.90;;;13.60;1.00;;;;;;5091963;28;20415;-72
2022/04/17 10:34:51;;;;;;;12.40;11.90;;;13.60;1.00;;;;;;5091840;28;20445;-72
2022/04/17 10:37:46;;;;;;;12.60;12.10;;;13.60;1.00;;;;;;5091170;28;20436;-73
2022/04/17 10:40:13;;;;;;;11.80;11.30;;;13.70;1.00;;;;;;5072182;28;20505;-76
2022/04/17 10:42:55;;;;;;;12.80;12.30;;;13.80;1.00;;;;;;5077152;28;20537;-71
2022/04/17 10:45:22;;;;;;;13.00;12.37;;;13.90;1.00;;;;;;5095936;28;20423;-73
2022/04/17 10:48:12;;;;;;;11.80;11.40;;;13.90;1.00;;;;;;5105203;28;20484;-72
2022/04/17 10:50:49;;;;;;;13.10;12.60;;;13.70;1.00;;;;;;5090719;28;21047;-73
2022/04/17 10:53:31;;;;;;;12.33;11.83;;;13.90;1.00;;;;;;5091396;28;20438;-72
2022/04/17 10:56:10;;;;;;;12.80;12.30;;;13.70;1.00;;;;;;5089248;28;20423;-73
2022/04/17 10:58:41;;;;;;;12.03;11.63;;;13.50;1.00;;;;;;5074682;28;20408;-73
2022/04/17 11:01:09;;;;;;;12.70;12.20;;;13.70;1.00;;;;;;5074449;28;20423;-72
2022/04/17 11:03:35;;;;;;;12.97;12.37;;;13.70;1.00;;;;;;5079939;28;20936;-72
2022/04/17 11:06:30;;;;;;;12.20;11.70;;;13.50;1.00;;;;;;5096835;28;20405;-69
2022/04/17 11:09:04;;;;;;;11.30;10.90;;;13.60;1.00;;;;;;5094596;28;20460;-69
2022/04/17 11:11:37;;;;;;;13.30;12.73;;;13.90;1.00;;;;;;5093619;28;20415;-68
2022/04/17 11:14:16;;;;;;;13.00;12.50;;;14.20;1.00;;;;;;5094746;28;20411;-69
2022/04/17 11:17:01;;;;;;;13.10;12.60;;;14.20;1.00;;;;;;5094576;28;20489;-68
2022/04/17 11:19:32;;;;;;;14.77;13.87;;;14.20;1.00;;;;;;5095007;28;21012;-68
2022/04/17 11:22:03;;;;;;;12.30;11.80;;;14.20;1.00;;;;;;5094668;28;20834;-69
2022/04/17 11:24:55;;;;;;;12.03;11.63;;;14.30;1.00;;;;;;5094355;28;20453;-69
2022/04/17 11:27:52;;;;;;;12.70;12.20;;;14.60;1.00;;;;;;5094037;28;20508;-69
2022/04/17 11:30:17;;;;;;;12.43;11.93;;;14.60;1.00;;;;;;5094559;28;20475;-69
2022/04/17 11:32:43;;;;;;;12.80;12.30;;;14.40;1.00;;;;;;5093471;28;20409;-69
2022/04/17 11:35:14;;;;;;;12.37;11.87;;;14.20;1.00;;;;;;5094628;28;20170;-69
2022/04/17 11:37:39;;;;;;;12.87;12.00;;;14.20;1.00;;;;;;5094689;28;20176;-69
2022/04/17 11:40:12;;;;;;;13.10;12.60;;;14.30;1.00;;;;;;5094758;28;20430;-69
2022/04/17 11:42:43;;;;;;;12.90;12.40;;;14.50;1.00;;;;;;5094320;28;20178;-69
2022/04/17 11:45:10;;;;;;;12.23;11.80;;;14.50;1.00;;;;;;5093977;28;20933;-69
2022/04/17 11:47:40;;;;;;;12.80;12.30;;;14.60;1.00;;;;;;5093907;28;20460;-69
2022/04/17 11:50:11;;;;;;;13.07;12.57;;;14.70;1.00;;;;;;5094382;28;20423;-69
2022/04/17 11:52:38;;;;;;;13.57;12.77;;;14.60;1.00;;;;;;5094123;28;20793;-69
2022/04/17 11:55:05;;;;;;;13.03;12.23;;;14.60;1.00;;;;;;5094137;28;20409;-72
2022/04/17 11:57:32;;;;;;;11.97;11.47;;;14.50;1.00;;;;;;5074452;28;20442;-68
2022/04/17 11:59:58;;;;;;;12.20;11.70;;;14.40;1.00;;;;;;5091055;28;20506;-68
2022/04/17 12:02:28;;;;;;;12.43;11.93;;;14.20;1.00;;;;;;5094625;28;20932;-71
2022/04/17 12:05:08;;;;;;;12.90;12.40;;;14.20;1.00;;;;;;5094284;28;20457;-68
2022/04/17 12:07:34;;;;;;;12.43;11.93;;;14.40;1.00;;;;;;5093838;28;20534;-68
2022/04/17 12:10:04;;;;;;;12.97;12.47;;;14.50;1.00;;;;;;5094718;28;20712;-69
2022/04/17 12:12:35;;;;;;;12.37;11.87;;;14.70;1.00;;;;;;5092963;28;20936;-68
2022/04/17 12:15:03;;;;;;;12.70;12.13;;;14.80;1.00;;;;;;5094113;28;20429;-71
2022/04/17 12:17:31;;;;;;;13.20;12.70;;;14.60;1.00;;;;;;5093848;28;20500;-70
2022/04/17 12:19:57;;;;;;;13.10;12.60;;;14.70;1.00;;;;;;5093532;28;20436;-71
2022/04/17 12:22:22;;;;;;;12.10;11.60;;;14.80;1.00;;;;;;5092179;28;20434;-72
2022/04/17 12:24:48;;;;;;;12.17;11.67;;;14.90;1.00;;;;;;5093238;28;20252;-71
2022/04/17 12:27:19;;;;;;;13.37;12.87;;;14.90;1.00;;;;;;5092898;28;20855;-71
2022/04/17 12:29:49;;;;;;;12.20;11.70;;;15.10;1.00;;;;;;5092948;28;20223;-72
2022/04/17 12:32:21;;;;;;;12.60;12.10;;;15.30;1.00;;;;;;5093339;28;20461;-71
2022/04/17 12:34:56;;;;;;;13.07;12.57;;;15.50;1.00;;;;;;5093052;28;20410;-72
2022/04/17 12:37:25;;;;;;;12.17;11.67;;;15.40;1.00;;;;;;5092790;28;20407;-71
2022/04/17 12:39:50;;;;;;;12.60;12.10;;;15.50;1.00;;;;;;5092332;28;20546;-72
2022/04/17 12:42:19;;;;;;;13.13;12.63;;;15.50;1.00;;;;;;5093245;28;20461;-71
2022/04/17 12:44:47;;;;;;;12.70;12.20;;;15.60;1.00;;;;;;5092974;28;20252;-73
2022/04/17 12:47:16;;;;;;;13.07;12.57;;;15.60;1.00;;;;;;5084040;28;20796;-71
2022/04/17 12:49:42;;;;;;;12.20;11.70;;;15.10;1.00;;;;;;5071294;28;20442;-70
2022/04/17 12:52:08;;;;;;;13.07;12.47;;;15.00;1.00;;;;;;5088952;28;20403;-73
2022/04/17 12:54:36;;;;;;;12.90;12.30;;;15.10;1.00;;;;;;5087310;28;20423;-71